Time;durP1;ratioP1;P1;durP2;ratioP2;P2;SDS_P1;SDS_P2;PMS_P1;PMS_P2;Temp;Humidity;BMP_temperature;BMP_pressure;BME280_temperature;BME280_humidity;BME280_pressure;Samples;Min_cycle;Max_cycle;Signal;HPM_P1;HPM_P2
2023/09/13 00:02:06;;;;;;;4.82;2.60;;;20.70;99.90;;;21.09;100.00;100638.50;5216723;28;20060;-52
2023/09/13 00:04:39;;;;;;;5.20;2.78;;;20.60;99.90;;;21.07;100.00;100641.19;5200183;28;20050;-53
2023/09/13 00:07:11;;;;;;;4.60;2.90;;;20.60;99.90;;;21.05;100.00;100642.06;5200709;28;20061;-54
2023/09/13 00:09:43;;;;;;;5.00;2.88;;;20.60;99.90;;;21.04;100.00;100638.56;5200321;28;20077;-54
2023/09/13 00:12:16;;;;;;;4.07;2.60;;;20.60;99.90;;;21.06;100.00;100646.47;5196377;28;20046;-55
2023/09/13 00:14:48;;;;;;;5.00;3.22;;;20.50;99.90;;;21.05;100.00;100652.69;5211817;28;20398;-54
2023/09/13 00:17:23;;;;;;;3.97;2.63;;;20.60;99.90;;;21.05;100.00;100653.56;5200876;28;20048;-53
2023/09/13 00:19:57;;;;;;;4.20;2.38;;;20.60;99.90;;;21.08;100.00;100647.38;5200201;28;20099;-53
2023/09/13 00:22:29;;;;;;;4.10;2.40;;;20.60;99.90;;;21.10;100.00;100649.09;5195817;28;20045;-53
2023/09/13 00:25:03;;;;;;;4.22;2.70;;;20.60;99.90;;;21.14;100.00;100649.94;5215853;28;20099;-53
2023/09/13 00:27:35;;;;;;;3.67;2.17;;;20.70;99.90;;;21.16;100.00;100645.50;5200588;28;20384;-53
2023/09/13 00:30:10;;;;;;;3.72;2.33;;;20.70;99.90;;;21.16;100.00;100645.50;5200052;28;20057;-53
2023/09/13 00:32:44;;;;;;;5.88;3.00;;;20.70;99.90;;;21.18;100.00;100648.13;5196045;28;20061;-53
2023/09/13 00:35:17;;;;;;;4.38;2.60;;;20.70;99.90;;;21.16;100.00;100642.84;5200689;28;20061;-54
2023/09/13 00:37:51;;;;;;;5.30;2.65;;;20.70;99.90;;;21.16;100.00;100645.50;5197781;28;20041;-51
2023/09/13 00:40:24;;;;;;;5.00;2.92;;;20.70;99.90;;;21.18;100.00;100649.00;5200117;28;20037;-52
2023/09/13 00:42:56;;;;;;;5.60;2.95;;;20.70;99.90;;;21.17;100.00;100652.56;5200884;28;20514;-53
2023/09/13 00:45:33;;;;;;;9.95;4.43;;;20.70;99.90;;;21.12;100.00;100647.28;5200233;28;20046;-55
2023/09/13 00:48:07;;;;;;;7.70;4.40;;;20.70;99.90;;;21.09;100.00;100651.75;5219937;28;20038;-54
2023/09/13 00:50:40;;;;;;;7.75;4.03;;;20.60;99.90;;;21.07;100.00;100653.56;5199678;28;20065;-55
2023/09/13 00:53:13;;;;;;;7.95;3.88;;;20.60;99.90;;;21.07;100.00;100650.91;5183345;28;20073;-53
2023/09/13 00:55:49;;;;;;;5.45;3.70;;;20.60;99.90;;;21.07;100.00;100645.63;5200175;28;20076;-57
2023/09/13 00:58:22;;;;;;;6.90;4.07;;;20.60;99.90;;;21.07;100.00;100643.84;5204025;28;20053;-55
2023/09/13 01:00:54;;;;;;;8.77;4.32;;;20.60;99.90;;;21.11;100.00;100647.31;5200598;28;20515;-54
2023/09/13 01:03:33;;;;;;;7.47;3.85;;;20.60;99.90;;;21.13;100.00;100656.16;5198408;28;20073;-52
2023/09/13 01:06:09;;;;;;;7.72;4.72;;;20.70;99.90;;;21.12;100.00;100664.97;5219045;28;20059;-52
2023/09/13 01:08:45;;;;;;;6.88;3.95;;;20.70;99.90;;;21.13;100.00;100661.44;5205006;28;20053;-55
2023/09/13 01:11:19;;;;;;;6.63;3.67;;;20.70;99.90;;;21.13;100.00;100667.63;5196445;28;20065;-54
2023/09/13 01:13:51;;;;;;;6.43;3.80;;;20.70;99.90;;;21.15;100.00;100670.25;5202607;28;20053;-52
2023/09/13 01:16:33;;;;;;;6.90;4.07;;;20.70;99.90;;;21.16;100.00;100677.31;5203634;28;20100;-53
2023/09/13 01:19:36;;;;;;;7.78;4.50;;;20.70;99.90;;;21.16;100.00;100681.72;5203221;28;20051;-54
2023/09/13 01:23:02;;;;;;;8.30;4.90;;;20.70;99.90;;;21.11;100.00;100681.78;5202784;28;20042;-55
2023/09/13 01:26:23;;;;;;;10.73;5.47;;;20.60;99.90;;;21.02;100.00;100682.75;5198197;28;20095;-53
2023/09/13 01:29:00;;;;;;;11.07;5.13;;;20.60;99.90;;;20.97;100.00;100681.03;5204422;28;20438;-52
2023/09/13 01:31:37;;;;;;;11.63;5.20;;;20.50;99.90;;;20.92;100.00;100682.84;5203323;28;20426;-53
2023/09/13 01:34:10;;;;;;;10.02;4.93;;;20.50;99.90;;;20.93;100.00;100681.94;5203811;28;20107;-53
2023/09/13 01:36:42;;;;;;;7.95;4.35;;;20.50;99.90;;;20.96;100.00;100684.59;5203069;28;20050;-53
2023/09/13 01:39:15;;;;;;;7.30;3.72;;;20.50;99.90;;;20.98;100.00;100685.44;5199424;28;20412;-51
2023/09/13 01:41:55;;;;;;;7.22;4.55;;;20.50;99.90;;;21.00;100.00;100686.31;5207465;28;20076;-52
2023/09/13 01:44:30;;;;;;;7.60;4.13;;;20.60;99.90;;;21.02;100.00;100684.53;5202988;28;20521;-53
2023/09/13 01:47:05;;;;;;;7.60;4.30;;;20.60;99.90;;;21.04;100.00;100672.13;5202320;28;20052;-52
2023/09/13 01:49:44;;;;;;;8.00;4.10;;;20.60;99.90;;;21.06;100.00;100679.19;5203019;28;20045;-54
2023/09/13 01:52:16;;;;;;;7.25;3.95;;;20.60;99.90;;;21.09;100.00;100687.09;5211276;28;20096;-54
2023/09/13 01:54:49;;;;;;;8.35;4.22;;;20.60;99.90;;;21.07;100.00;100678.28;5202023;28;20045;-52
2023/09/13 01:57:21;;;;;;;7.47;4.43;;;20.60;99.90;;;21.09;100.00;100686.22;5198507;28;20112;-54
2023/09/13 01:59:55;;;;;;;9.70;4.13;;;20.70;99.90;;;21.09;100.00;100687.09;5216479;28;20053;-53
2023/09/13 02:02:28;;;;;;;7.53;3.80;;;20.60;99.90;;;21.10;100.00;100687.97;5190440;28;20048;-53
2023/09/13 02:05:00;;;;;;;6.63;3.60;;;20.60;99.90;;;21.10;100.00;100693.28;5201672;28;20447;-54
2023/09/13 02:07:36;;;;;;;8.18;3.90;;;20.70;99.90;;;21.10;100.00;100685.31;5195100;28;20070;-53
2023/09/13 02:10:09;;;;;;;6.20;3.55;;;20.60;99.90;;;21.10;100.00;100695.91;5202055;28;20526;-55
2023/09/13 02:12:41;;;;;;;7.32;4.00;;;20.70;99.90;;;21.09;100.00;100696.81;5198304;28;20061;-52
2023/09/13 02:15:15;;;;;;;8.32;3.85;;;20.60;99.90;;;21.07;100.00;100701.25;5210360;28;20082;-53
2023/09/13 02:17:50;;;;;;;8.23;4.18;;;20.60;99.90;;;21.07;100.00;100706.56;5186157;28;20091;-51
2023/09/13 02:20:23;;;;;;;7.63;4.00;;;20.60;99.90;;;21.07;100.00;100707.44;5195378;28;20565;-52
2023/09/13 02:22:56;;;;;;;6.40;3.70;;;20.60;99.90;;;21.08;100.00;100717.13;5192589;28;20084;-54
2023/09/13 02:25:28;;;;;;;7.57;4.13;;;20.60;99.90;;;21.10;100.00;100709.16;5197389;28;20434;-53
2023/09/13 02:28:01;;;;;;;8.73;4.18;;;20.60;99.90;;;21.11;100.00;100716.22;5202573;28;20145;-55
2023/09/13 02:30:35;;;;;;;9.18;4.72;;;20.60;99.90;;;21.11;100.00;100716.22;5202301;28;20526;-53
2023/09/13 02:33:08;;;;;;;8.23;4.47;;;20.70;99.90;;;21.12;100.00;100717.97;5200486;28;20061;-53
2023/09/13 02:35:40;;;;;;;8.55;4.22;;;20.60;99.90;;;21.10;100.00;100715.34;5202753;28;20398;-53
2023/09/13 02:38:13;;;;;;;8.57;4.15;;;20.70;99.90;;;21.10;100.00;100719.78;5201964;28;20047;-52
2023/09/13 02:40:47;;;;;;;8.68;4.80;;;20.60;99.90;;;21.08;100.00;100721.56;5202015;28;20119;-53
2023/09/13 02:43:19;;;;;;;8.27;4.72;;;20.60;99.90;;;21.07;100.00;100719.81;5197843;28;20053;-53
2023/09/13 02:45:53;;;;;;;10.40;5.28;;;20.60;99.90;;;21.04;100.00;100718.06;5198843;28;20065;-53
2023/09/13 02:48:27;;;;;;;11.27;5.68;;;20.60;99.90;;;21.05;100.00;100718.94;5198111;28;20120;-54
2023/09/13 02:51:00;;;;;;;11.20;5.63;;;20.60;99.90;;;21.03;100.00;100724.25;5215671;28;20388;-54
2023/09/13 02:53:33;;;;;;;11.45;5.70;;;20.60;99.90;;;21.03;100.00;100729.56;5197448;28;20041;-53
2023/09/13 02:56:06;;;;;;;10.00;5.40;;;20.60;99.90;;;21.04;100.00;100733.06;5216375;28;20049;-53
2023/09/13 02:58:39;;;;;;;10.63;5.20;;;20.60;99.90;;;21.04;100.00;100727.78;5195525;28;20056;-52
2023/09/13 03:01:13;;;;;;;7.72;4.70;;;20.60;99.90;;;21.03;100.00;100734.84;5200656;28;20038;-53
2023/09/13 03:03:48;;;;;;;9.75;4.80;;;20.60;99.90;;;21.06;100.00;100731.28;5193613;28;20050;-54
2023/09/13 03:06:21;;;;;;;9.07;5.03;;;20.60;99.90;;;21.06;100.00;100731.28;5197502;28;20069;-52
2023/09/13 03:08:53;;;;;;;9.13;4.93;;;20.60;99.90;;;21.06;100.00;100742.78;5197701;28;20045;-53
2023/09/13 03:11:26;;;;;;;8.57;4.80;;;20.60;99.90;;;21.04;100.00;100736.59;5196948;28;20352;-53
2023/09/13 03:13:58;;;;;;;9.95;5.18;;;20.60;99.90;;;21.05;100.00;100737.47;5197039;28;20446;-51
2023/09/13 03:16:32;;;;;;;9.07;4.93;;;20.60;99.90;;;21.06;100.00;100739.22;5186459;28;20052;-54
2023/09/13 03:19:06;;;;;;;10.27;5.35;;;20.60;99.90;;;21.04;100.00;100739.25;5193204;28;20041;-54
2023/09/13 03:21:44;;;;;;;11.00;5.68;;;20.60;99.90;;;21.05;100.00;100740.13;5201206;28;20045;-52
2023/09/13 03:24:17;;;;;;;9.70;4.95;;;20.60;99.90;;;21.04;100.00;100731.31;5192730;28;20503;-53
2023/09/13 03:26:50;;;;;;;10.60;5.88;;;20.60;99.90;;;21.04;100.00;100731.31;5201088;28;20046;-53
2023/09/13 03:29:23;;;;;;;9.30;4.80;;;20.60;99.90;;;21.05;100.00;100732.19;5210100;28;20045;-55
2023/09/13 03:32:02;;;;;;;11.88;5.85;;;20.60;99.90;;;21.05;100.00;100729.53;5200996;28;20131;-54
2023/09/13 03:34:35;;;;;;;11.45;6.03;;;20.60;99.90;;;21.04;100.00;100725.13;5192965;28;20053;-52
2023/09/13 03:37:08;;;;;;;12.13;6.18;;;20.60;99.90;;;21.03;100.00;100728.69;5191090;28;20574;-53
2023/09/13 03:39:41;;;;;;;11.75;5.55;;;20.60;99.90;;;21.03;100.00;100733.97;5201191;28;20041;-53
2023/09/13 03:42:13;;;;;;;11.52;6.32;;;20.60;99.90;;;21.04;100.00;100735.72;5199651;28;20053;-55
2023/09/13 03:44:45;;;;;;;14.75;7.63;;;20.60;99.90;;;21.02;100.00;100740.16;5193164;28;20041;-54
2023/09/13 03:47:19;;;;;;;16.25;8.55;;;20.60;99.90;;;20.98;100.00;100735.78;5193000;28;20041;-55
2023/09/13 03:49:55;;;;;;;16.63;8.13;;;20.60;99.90;;;20.93;100.00;100737.59;5193183;28;20190;-54
2023/09/13 03:52:27;;;;;;;13.43;7.78;;;20.50;99.90;;;20.92;100.00;100736.72;5192776;28;20041;-53
2023/09/13 03:55:00;;;;;;;15.18;7.65;;;20.50;99.90;;;20.93;100.00;100746.44;5201151;28;20431;-54
2023/09/13 03:57:32;;;;;;;17.52;8.02;;;20.50;99.90;;;20.92;100.00;100733.19;5195922;28;20064;-54
2023/09/13 04:00:12;;;;;;;22.98;11.18;;;20.50;99.90;;;20.89;100.00;100730.56;5190239;28;20045;-53
2023/09/13 04:02:47;;;;;;;24.13;12.00;;;20.50;99.90;;;20.84;100.00;100728.81;5202231;28;20054;-53
2023/09/13 04:05:19;;;;;;;;;;;20.40;99.90;;;20.82;100.00;100719.16;5181803;28;20569;-54
2023/09/13 04:07:55;;;;;;;25.23;11.05;;;20.40;99.90;;;20.79;100.00;100724.47;5196770;28;19925;-51
2023/09/13 04:10:27;;;;;;;25.92;12.20;;;20.40;99.90;;;20.77;100.00;100726.25;5209708;28;20509;-53
2023/09/13 04:13:00;;;;;;;30.05;12.77;;;20.30;99.90;;;20.73;100.00;100728.03;5196898;28;20049;-54
2023/09/13 04:15:32;;;;;;;26.42;12.60;;;20.40;99.90;;;20.70;100.00;100730.72;5196909;28;20038;-53
2023/09/13 04:18:08;;;;;;;27.70;12.80;;;20.30;99.90;;;20.67;100.00;100725.47;5215743;28;20622;-53
2023/09/13 04:20:45;;;;;;;28.65;13.55;;;20.30;99.90;;;20.65;100.00;100721.91;5201203;28;20096;-55
2023/09/13 04:23:17;;;;;;;27.20;12.98;;;20.30;99.90;;;20.63;100.00;100729.00;5219482;28;20171;-53
2023/09/13 04:25:50;;;;;;;26.60;12.05;;;20.30;99.90;;;20.61;100.00;100736.09;5201106;28;20100;-52
2023/09/13 04:28:22;;;;;;;24.55;11.95;;;20.20;99.90;;;20.61;100.00;100745.81;5220633;28;20095;-52
2023/09/13 04:30:59;;;;;;;25.10;10.68;;;20.20;99.90;;;20.61;100.00;100745.81;5204810;28;20434;-52
2023/09/13 04:33:54;;;;;;;30.08;13.13;;;20.20;99.90;;;20.58;100.00;100742.28;5199526;28;20411;-54
2023/09/13 04:36:31;;;;;;;28.20;12.70;;;20.20;99.90;;;20.57;100.00;100737.00;5204682;28;20041;-53
2023/09/13 04:39:04;;;;;;;25.60;12.18;;;20.20;99.90;;;20.58;100.00;100741.41;5196186;28;20038;-53
2023/09/13 04:41:37;;;;;;;24.35;11.15;;;20.20;99.90;;;20.59;100.00;100741.38;5200652;28;20037;-54
2023/09/13 04:44:12;;;;;;;24.15;10.82;;;20.20;99.90;;;20.62;100.00;100743.16;5201463;28;20517;-52
2023/09/13 04:46:45;;;;;;;26.05;12.57;;;20.20;99.90;;;20.62;100.00;100743.16;5204732;28;20049;-53
2023/09/13 04:49:18;;;;;;;25.73;11.63;;;20.20;99.90;;;20.61;100.00;100745.81;5202896;28;20046;-53
2023/09/13 04:51:55;;;;;;;27.83;13.18;;;20.20;99.90;;;20.62;100.00;100748.44;5204436;28;20073;-53
2023/09/13 04:54:28;;;;;;;19.00;9.82;;;20.20;99.90;;;20.65;100.00;100748.41;5195744;28;20490;-52
2023/09/13 04:57:00;;;;;;;22.90;11.30;;;20.30;99.90;;;20.67;100.00;100754.59;5195776;28;20044;-54
2023/09/13 04:59:43;;;;;;;25.75;12.07;;;20.30;99.90;;;20.66;100.00;100755.44;5200151;28;20096;-53
2023/09/13 05:02:16;;;;;;;21.92;10.88;;;20.30;99.90;;;20.66;100.00;100758.09;5218671;28;20064;-53
2023/09/13 05:04:51;;;;;;;25.65;12.07;;;20.30;99.90;;;20.67;100.00;100759.88;5191812;28;20462;-53
2023/09/13 05:07:23;;;;;;;28.98;12.35;;;20.30;99.90;;;20.64;100.00;100765.19;5210766;28;20372;-54
2023/09/13 05:09:56;;;;;;;25.83;12.00;;;20.30;99.90;;;20.62;100.00;100764.34;5192059;28;20054;-53
2023/09/13 05:12:28;;;;;;;43.03;18.90;;;20.20;99.90;;;20.56;100.00;100769.66;5211280;28;20048;-53
2023/09/13 05:15:01;;;;;;;34.35;15.70;;;20.20;99.90;;;20.51;100.00;100774.97;5204009;28;20049;-54
2023/09/13 05:17:33;;;;;;;33.30;15.63;;;20.20;99.90;;;20.48;100.00;100768.84;5195945;28;20042;-54
2023/09/13 05:20:09;;;;;;;31.80;14.63;;;20.10;99.90;;;20.42;100.00;100772.38;5203271;28;20053;-50
2023/09/13 05:22:43;;;;;;;28.73;13.15;;;20.10;99.90;;;20.39;100.00;100776.78;5199725;28;20511;-50
2023/09/13 05:25:15;;;;;;;23.17;11.75;;;20.00;99.90;;;20.36;100.00;100783.00;5207639;28;20089;-50
2023/09/13 05:27:47;;;;;;;27.15;13.63;;;20.00;99.90;;;20.36;100.00;100785.63;5199781;28;20049;-49
2023/09/13 05:30:20;;;;;;;23.70;11.55;;;20.00;99.90;;;20.33;100.00;100783.88;5217739;28;20068;-50
2023/09/13 05:32:52;;;;;;;22.58;11.30;;;20.00;99.90;;;20.31;100.00;100788.31;5204786;28;20136;-51
2023/09/13 05:35:26;;;;;;;21.25;10.75;;;20.00;99.90;;;20.33;100.00;100794.47;5203277;28;20118;-49
2023/09/13 05:37:59;;;;;;;19.05;10.55;;;20.00;99.90;;;20.36;100.00;100792.69;5199940;28;20061;-50
2023/09/13 05:40:31;;;;;;;18.58;9.75;;;20.00;99.90;;;20.40;100.00;100797.06;5215637;28;20480;-50
2023/09/13 05:43:04;;;;;;;20.20;10.52;;;20.00;99.90;;;20.41;100.00;100791.78;5207492;28;20056;-49
2023/09/13 05:45:37;;;;;;;18.30;8.90;;;20.00;99.90;;;20.40;100.00;100794.44;5199768;28;20070;-50
2023/09/13 05:48:09;;;;;;;18.60;9.30;;;20.00;99.90;;;20.42;100.00;100803.25;5216755;28;20053;-51
2023/09/13 05:50:43;;;;;;;22.48;11.00;;;20.00;99.90;;;20.45;100.00;100798.84;5199115;28;20054;-52
2023/09/13 05:53:18;;;;;;;24.70;11.77;;;20.10;99.90;;;20.42;100.00;100808.56;5215008;28;20050;-51
2023/09/13 05:55:50;;;;;;;19.92;10.65;;;20.10;99.90;;;20.43;100.00;100820.91;5189750;28;20041;-51
2023/09/13 05:58:23;;;;;;;23.05;11.07;;;20.00;99.90;;;20.38;100.00;100822.69;5201500;28;20049;-49
2023/09/13 06:00:56;;;;;;;17.08;8.75;;;20.00;99.90;;;20.36;100.00;100821.81;5196059;28;20068;-49
2023/09/13 06:03:30;;;;;;;18.92;8.98;;;20.00;99.90;;;20.38;100.00;100822.69;5193315;28;20041;-49
2023/09/13 06:06:04;;;;;;;16.15;8.45;;;20.00;99.90;;;20.38;100.00;100822.69;5191129;28;20132;-50
2023/09/13 06:08:36;;;;;;;23.30;11.52;;;20.00;99.90;;;20.39;100.00;100825.31;5211879;28;20250;-51
2023/09/13 06:11:08;;;;;;;18.58;8.75;;;20.00;99.90;;;20.41;100.00;100827.94;5199458;28;20053;-51
2023/09/13 06:13:41;;;;;;;15.65;7.60;;;20.00;99.90;;;20.49;100.00;100829.72;5204064;28;20099;-50
2023/09/13 06:16:13;;;;;;;15.48;7.55;;;20.10;99.90;;;20.58;100.00;100831.44;5202996;28;20064;-53
2023/09/13 06:18:45;;;;;;;17.92;9.32;;;20.20;99.90;;;20.80;100.00;100832.16;5197122;28;20042;-52
2023/09/13 06:21:19;;;;;;;13.00;7.18;;;20.30;99.90;;;21.29;100.00;100838.03;5192482;28;20045;-51
2023/09/13 06:23:51;;;;;;;12.50;7.00;;;20.60;99.90;;;22.24;100.00;100831.78;5202618;28;20272;-52
2023/09/13 06:26:24;;;;;;;12.75;6.88;;;21.30;99.90;;;23.32;100.00;100842.59;5200926;28;20042;-52
2023/09/13 06:28:56;;;;;;;11.30;6.70;;;22.10;99.90;;;24.15;100.00;100841.97;5198747;28;20120;-53
2023/09/13 06:31:28;;;;;;;9.75;5.88;;;22.90;99.90;;;24.59;100.00;100858.84;5210108;28;20068;-52
2023/09/13 06:34:01;;;;;;;10.52;5.75;;;23.40;99.90;;;24.70;100.00;100855.94;5194030;28;20047;-52
2023/09/13 06:36:35;;;;;;;11.38;6.32;;;23.60;99.90;;;24.39;100.00;100861.94;5194146;28;20038;-52
2023/09/13 06:39:08;;;;;;;12.70;6.35;;;23.60;99.90;;;23.85;100.00;100869.19;5202187;28;20045;-52
2023/09/13 06:41:40;;;;;;;12.15;6.45;;;23.30;99.90;;;23.41;100.00;100866.41;5198267;28;20050;-54
2023/09/13 06:44:12;;;;;;;11.10;6.65;;;23.00;99.90;;;23.07;100.00;100862.50;5207064;28;20041;-52
2023/09/13 06:46:45;;;;;;;12.57;7.25;;;22.70;99.90;;;22.78;100.00;100870.91;5202374;28;20053;-52
2023/09/13 06:49:17;;;;;;;15.65;6.95;;;22.40;99.90;;;22.59;100.00;100870.28;5199196;28;20046;-52
2023/09/13 06:51:51;;;;;;;13.32;7.63;;;22.30;99.90;;;22.41;100.00;100861.63;5198151;28;20046;-52
2023/09/13 06:54:26;;;;;;;13.75;7.07;;;22.10;99.90;;;22.31;100.00;100870.63;5206265;28;20045;-52
2023/09/13 06:56:59;;;;;;;13.80;7.30;;;21.90;99.90;;;22.19;100.00;100879.63;5198266;28;20534;-52
2023/09/13 06:59:32;;;;;;;14.77;7.53;;;21.90;99.90;;;22.08;100.00;100880.59;5208171;28;20073;-52
2023/09/13 07:02:05;;;;;;;14.98;7.95;;;21.80;99.90;;;21.93;100.00;100892.25;5201948;28;20419;-52
2023/09/13 07:04:38;;;;;;;11.93;6.82;;;21.60;99.90;;;21.84;100.00;100892.31;5197822;28;20380;-53
2023/09/13 07:07:12;;;;;;;15.73;8.23;;;21.50;99.90;;;21.81;100.00;100892.38;5194400;28;20060;-52
2023/09/13 07:09:45;;;;;;;14.98;8.00;;;21.50;99.90;;;21.77;100.00;100898.59;5201521;28;20052;-52
2023/09/13 07:12:17;;;;;;;13.60;7.38;;;21.50;99.90;;;21.75;100.00;100898.63;5201351;28;20057;-52
2023/09/13 07:14:49;;;;;;;12.90;6.45;;;21.40;99.90;;;21.81;100.00;100901.22;5201906;28;20052;-52
2023/09/13 07:17:22;;;;;;;11.00;6.88;;;21.50;99.90;;;21.83;100.00;100909.16;5201333;28;20457;-52
2023/09/13 07:19:55;;;;;;;12.95;6.78;;;21.50;99.90;;;21.82;100.00;100907.41;5197587;28;20048;-52
2023/09/13 07:22:29;;;;;;;10.70;6.05;;;21.50;99.90;;;21.77;100.00;100912.72;5206248;28;20049;-54
2023/09/13 07:25:01;;;;;;;11.70;5.90;;;21.50;99.90;;;21.82;100.00;100910.06;5197762;28;20427;-52
2023/09/13 07:27:34;;;;;;;11.75;6.43;;;21.50;99.90;;;21.84;100.00;100906.50;5216263;28;20107;-52
2023/09/13 07:30:10;;;;;;;14.90;6.75;;;21.50;99.90;;;21.89;100.00;100917.94;5201623;28;20549;-52
2023/09/13 07:32:42;;;;;;;11.32;6.28;;;21.50;99.90;;;21.86;100.00;100910.00;5201192;28;20119;-52
2023/09/13 07:35:14;;;;;;;11.90;6.72;;;21.60;99.90;;;21.88;100.00;100904.69;5198023;28;20100;-52
2023/09/13 07:37:48;;;;;;;14.65;7.30;;;21.50;99.90;;;21.91;100.00;100916.16;5197532;28;20054;-52
2023/09/13 07:40:21;;;;;;;10.88;6.18;;;21.60;99.90;;;21.85;100.00;100918.88;5215004;28;20072;-52
2023/09/13 07:42:53;;;;;;;13.95;7.35;;;21.50;99.90;;;21.77;100.00;100931.31;5201336;28;20172;-52
2023/09/13 07:45:25;;;;;;;12.90;6.30;;;21.50;99.90;;;21.71;100.00;100935.78;5200868;28;20045;-52
2023/09/13 07:47:59;;;;;;;13.02;6.70;;;21.40;99.90;;;21.71;100.00;100936.66;5201209;28;20068;-52
2023/09/13 07:50:38;;;;;;;12.13;6.65;;;21.40;99.90;;;21.70;100.00;100939.34;5197248;28;20057;-52
2023/09/13 07:53:13;;;;;;;13.13;6.40;;;21.40;99.90;;;21.67;100.00;100937.59;5182215;28;20072;-52
2023/09/13 07:55:45;;;;;;;12.18;6.88;;;21.40;99.90;;;21.63;100.00;100944.69;5214526;28;20037;-53
2023/09/13 07:58:18;;;;;;;11.43;6.75;;;21.30;99.90;;;21.61;100.00;100945.63;5202174;28;20050;-52
2023/09/13 08:00:50;;;;;;;14.90;6.50;;;21.30;99.90;;;21.63;100.00;100943.81;5205359;28;20391;-52
2023/09/13 08:03:22;;;;;;;13.95;5.75;;;21.30;99.90;;;21.62;100.00;100952.69;5204661;28;20411;-51
2023/09/13 08:05:57;;;;;;;13.77;7.20;;;21.30;99.90;;;21.68;100.00;100952.63;5201650;28;20065;-52
2023/09/13 08:08:33;;;;;;;12.32;5.88;;;21.40;99.90;;;21.71;100.00;100955.25;5211454;28;20057;-52
2023/09/13 08:11:05;;;;;;;14.02;6.82;;;21.40;99.90;;;21.76;100.00;100964.03;5201383;28;20046;-52
2023/09/13 08:13:37;;;;;;;10.38;6.18;;;21.40;99.90;;;21.78;100.00;100969.34;5217517;28;20045;-51
2023/09/13 08:16:10;;;;;;;11.20;5.90;;;21.40;99.90;;;21.82;100.00;100971.06;5196379;28;20057;-52
2023/09/13 08:18:42;;;;;;;10.02;5.47;;;21.50;99.90;;;21.90;100.00;100972.75;5201741;28;20053;-52
2023/09/13 08:21:15;;;;;;;12.45;6.15;;;21.50;99.90;;;21.96;100.00;100974.47;5192888;28;20530;-53
2023/09/13 08:23:48;;;;;;;10.15;5.88;;;21.60;99.90;;;21.97;100.00;100972.72;5192949;28;20415;-52
2023/09/13 08:26:21;;;;;;;12.63;6.55;;;21.60;99.90;;;22.00;100.00;100976.22;5213779;28;20042;-52
2023/09/13 08:28:53;;;;;;;10.60;5.45;;;21.60;99.90;;;22.04;100.00;100987.69;5194443;28;20062;-52
2023/09/13 08:31:26;;;;;;;10.82;5.43;;;21.60;99.90;;;22.14;100.00;100990.28;5202286;28;20052;-52
2023/09/13 08:33:58;;;;;;;11.25;6.07;;;21.70;99.90;;;22.42;100.00;100990.00;5200924;28;20068;-53
2023/09/13 08:36:31;;;;;;;8.13;5.20;;;21.90;99.90;;;23.05;100.00;100994.59;5219570;28;20053;-53
2023/09/13 08:39:05;;;;;;;11.70;5.38;;;22.20;99.90;;;23.40;100.00;100991.41;5198255;28;20129;-54
2023/09/13 08:41:37;;;;;;;;;;;22.50;99.90;;;23.50;100.00;100996.59;5199599;28;20369;-53
2023/09/13 08:44:09;;;;;;;10.48;5.60;;;22.70;99.90;;;23.80;100.00;101000.59;5195468;28;19921;-53
2023/09/13 08:46:42;;;;;;;12.32;6.32;;;22.90;99.90;;;24.12;100.00;101006.25;5220657;28;20529;-53
2023/09/13 08:49:15;;;;;;;8.80;5.25;;;23.20;99.90;;;24.07;100.00;101007.22;5204452;28;20037;-53
2023/09/13 08:51:49;;;;;;;10.35;4.88;;;23.30;99.90;;;23.94;100.00;101011.00;5192682;28;20053;-54
2023/09/13 08:54:23;;;;;;;10.48;5.65;;;23.20;99.90;;;23.70;100.00;101016.72;5217289;28;20422;-53
2023/09/13 08:56:57;;;;;;;;;;;23.10;99.90;;;23.45;100.00;101011.75;5200875;28;20061;-54
2023/09/13 08:59:29;;;;;;;9.13;5.13;;;23.00;99.90;;;23.28;100.00;101021.75;5209859;28;20378;-53
2023/09/13 09:02:02;;;;;;;9.50;5.07;;;22.80;99.90;;;23.08;100.00;101026.44;5204095;28;20091;-53
2023/09/13 09:04:38;;;;;;;10.80;5.80;;;22.70;99.90;;;22.91;100.00;101021.34;5192421;28;20053;-53
2023/09/13 09:07:11;;;;;;;10.57;5.72;;;22.50;99.90;;;22.78;100.00;101019.72;5200520;28;20136;-53
2023/09/13 09:09:46;;;;;;;10.65;5.60;;;22.40;99.90;;;22.69;100.00;101021.59;5220052;28;20151;-53
2023/09/13 09:12:20;;;;;;;9.35;5.50;;;22.30;99.90;;;22.67;100.00;101028.66;5200012;28;20049;-53
2023/09/13 09:14:53;;;;;;;9.05;5.35;;;22.30;99.90;;;22.65;100.00;101034.91;5192249;28;20054;-52
2023/09/13 09:17:26;;;;;;;8.27;4.90;;;22.20;99.90;;;22.59;100.00;101038.50;5214144;28;20053;-52
2023/09/13 09:19:59;;;;;;;13.07;6.35;;;22.20;99.90;;;22.57;100.00;101037.66;5199987;28;20053;-53
2023/09/13 09:22:33;;;;;;;8.00;4.68;;;22.20;99.90;;;22.54;100.00;101048.31;5217828;28;20060;-52
2023/09/13 09:25:11;;;;;;;12.00;6.72;;;22.10;99.90;;;22.53;100.00;101045.66;5220582;28;20533;-53
2023/09/13 09:27:44;;;;;;;11.20;5.90;;;22.10;99.90;;;22.51;100.00;101040.38;5200720;28;20037;-53
2023/09/13 09:30:16;;;;;;;11.50;5.80;;;22.10;99.90;;;22.52;100.00;101049.22;5199034;28;20095;-52
2023/09/13 09:32:52;;;;;;;11.68;5.60;;;22.10;99.90;;;22.53;100.00;101048.31;5195114;28;20056;-53
2023/09/13 09:35:24;;;;;;;10.48;5.55;;;22.10;99.90;;;22.52;100.00;101050.09;5200431;28;20128;-53
2023/09/13 09:37:57;;;;;;;11.23;5.35;;;22.10;99.90;;;22.57;100.00;101047.41;5199686;28;20136;-52
2023/09/13 09:40:38;;;;;;;8.68;4.40;;;22.10;99.90;;;22.59;100.00;101040.28;5217516;28;20376;-52
2023/09/13 09:43:10;;;;;;;10.98;5.90;;;22.20;99.90;;;22.66;100.00;101052.59;5203492;28;20495;-53
2023/09/13 09:45:42;;;;;;;12.02;5.82;;;22.20;99.90;;;22.70;100.00;101054.34;5203261;28;20053;-52
2023/09/13 09:48:16;;;;;;;8.65;4.75;;;22.20;99.90;;;22.76;100.00;101048.97;5199735;28;20050;-52
2023/09/13 09:50:53;;;;;;;11.40;4.97;;;22.30;99.90;;;22.85;100.00;101043.53;5220004;28;20045;-52
2023/09/13 09:53:26;;;;;;;8.98;5.07;;;22.30;99.90;;;22.93;100.00;101047.00;5191601;28;20038;-52
2023/09/13 09:56:00;;;;;;;8.18;4.50;;;22.40;99.90;;;22.99;100.00;101052.25;5198267;28;20054;-52
2023/09/13 09:58:33;;;;;;;8.50;4.88;;;22.50;99.90;;;23.03;100.00;101047.78;5197862;28;20053;-52
2023/09/13 10:01:06;;;;;;;10.20;4.95;;;22.50;99.90;;;23.04;100.00;101049.53;5203183;28;20044;-52
2023/09/13 10:03:39;;;;;;;8.40;4.45;;;22.50;99.90;;;23.07;100.00;101045.94;5202938;28;20072;-53
2023/09/13 10:06:13;;;;;;;7.13;4.25;;;22.50;99.90;;;23.17;100.00;101051.16;5195168;28;20044;-52
2023/09/13 10:08:50;;;;;;;7.80;4.32;;;22.60;99.90;;;23.36;100.00;101035.81;5198989;28;20403;-53
2023/09/13 10:11:24;;;;;;;9.60;4.60;;;22.70;99.90;;;23.50;100.00;101044.47;5194894;28;20384;-53
2023/09/13 10:13:57;;;;;;;5.88;3.78;;;22.90;99.90;;;23.61;100.00;101043.47;5187051;28;20038;-54
2023/09/13 10:16:31;;;;;;;7.75;4.40;;;22.90;99.90;;;23.69;100.00;101046.91;5202432;28;20503;-52
2023/09/13 10:19:11;;;;;;;6.82;4.30;;;23.10;99.90;;;23.77;100.00;101050.31;5202860;28;20585;-53
2023/09/13 10:21:44;;;;;;;7.88;4.57;;;23.10;99.90;;;23.94;100.00;101055.41;5201317;28;20411;-52
2023/09/13 10:24:22;;;;;;;7.00;4.22;;;23.20;99.90;;;24.04;100.00;101051.66;5202416;28;20522;-52
2023/09/13 10:27:01;;;;;;;8.02;4.40;;;23.40;99.90;;;24.09;100.00;101058.66;5199033;28;20042;-54
2023/09/13 10:29:40;;;;;;;7.05;4.20;;;23.40;99.90;;;24.10;100.00;101063.09;5199324;28;20438;-53
2023/09/13 10:32:16;;;;;;;7.30;3.95;;;23.50;99.90;;;24.13;100.00;101062.19;5198261;28;20131;-53